Pagina principale
METAR-TAF:

METAR-TAF

Aeroporti :

Tabarka, Tunisia

latitudine: 36-57N, longitudine: 008-45E, altezza: 20 m

Osservazione

Il bollettino è stato emesso 6 ore e 56 minuti fa, alle 05:00 UTC
Vento 7 kt da ovest/sud-ovest
Temperature 20°C
Umidità 94%
Pressione 1014 hPa

METAR: DTKA 210500Z AUTO 25007KT /// 20/19 Q1014

Ora: 12:56 (11:56 UTC)

Previsione

Il bollettino è stato emesso 8 ore e 56 minuti fa, alle 03:00 UTC
Previsione valida dal 21 alle 04 UTC al 21 alle 13 UTC
Vento 7 kt da ovest
Visibilità 10 km o più
Nubi sparse ad un'altezza di 2000 ft
Nubi sparse ad un'altezza di 3000 ft
Temporaneamente
dal 21 alle 04 UTC al 21 alle 13 UTC
Vento 20 kt da ovest con raffiche fino a 27 kt
Visibilità: 4000 m
Nubi sparse ad un'altezza di 2000 ft, Cumulo congesto.
Poco nuvoloso ad un'altezza di 2300 ft, Cumulonembo.
temporale, rovesci di pioggia

TAF: DTKA 210300Z 2104/2113 26007KT 9999 SCT020 SCT030 TEMPO 2104/2113 27020G27KT 4000 TS SHRA SCT020TCU FEW023CB

Osservazioni e previsioni meteorologiche di più di 4000 aeroporti (messaggi METAR e TAF).

Le stazioni disponibili sono rappresentate dai dischi gialli e rossi sulla carta.

Puntare il mouse per vedere il nome della stazione.

Clicca sopra per visualizzare le osservazioni e previsioni meteorologiche.

Per cambiare la mappa : fare clic sui pulsanti verdi con una croce nera per ingrandire, il pulsante verde con un trattino per diminuire, o sulla freccia verde per le mappe adiacenti.


METAR-TAF: